This is the latest recevied weather packets stored in our database for station/object K4WCH. If no packets are shown the sender has not sent any weather packets the latest 10 day(s).
| Time | Temp. | Humidity | Pressure | Rain* | Wind** | Luminosity | Snow |
|---|---|---|---|---|---|---|---|
| 1788384491 | 30.56° C | 74% | 1014.3 hPa | 0 mm | - | 146 W/m² | - |
| 1788384203 | 30.56° C | 73% | 1014.2 hPa | 0 mm | - | 163 W/m² | - |
| 1788383884 | 30.56° C | 75% | 1013.9 hPa | 0 mm | - | 361 W/m² | - |
| 1788383580 | 31.11° C | 75% | 1014 hPa | 0 mm | - | 271 W/m² | - |
| 1788383280 | 31.11° C | 75% | 1014.1 hPa | 0 mm | - | 281 W/m² | - |
| 1788382974 | 31.11° C | 73% | 1014 hPa | 0 mm | - | 307 W/m² | - |
| 1788382672 | 31.11° C | 75% | 1014.1 hPa | 0 mm | - | 417 W/m² | - |
| 1788382368 | 31.11° C | 73% | 1014.2 hPa | 0 mm | - | 467 W/m² | - |
| 1788382063 | 31.11° C | 73% | 1014 hPa | 0 mm | - | 557 W/m² | - |
| 1788381759 | 31.11° C | 72% | 1013.9 hPa | 0 mm | - | 621 W/m² | - |
| 1788381458 | 30.56° C | 75% | 1013.9 hPa | 0 mm | - | 603 W/m² | - |
| 1788381153 | 30.56° C | 73% | 1014.1 hPa | 0 mm | - | 627 W/m² | - |
| 1788380854 | 30.56° C | 77% | 1014.3 hPa | 0 mm | - | 682 W/m² | - |
| 1788380550 | 30° C | 79% | 1014.2 hPa | 0 mm | - | 671 W/m² | - |
| 1788380246 | 29.44° C | 81% | 1014.2 hPa | 0 mm | - | 689 W/m² | - |
| 1788379945 | 28.89° C | 83% | 1014.5 hPa | 0 mm | - | 367 W/m² | - |
| 1788379640 | 28.89° C | 84% | 1014.4 hPa | 0 mm | - | 256 W/m² | - |
| 1788379337 | 28.33° C | 85% | 1014.4 hPa | 0 mm | - | 216 W/m² | - |
| 1788379032 | 27.78° C | 86% | 1014.2 hPa | 0 mm | - | 209 W/m² | - |
| 1788378731 | 27.78° C | 87% | 1014.4 hPa | 0 mm | - | 202 W/m² | - |
| 1788378430 | 27.78° C | 86% | 1014.6 hPa | 0 mm | - | 198 W/m² | - |
| 1788378126 | 27.78° C | 86% | 1014.7 hPa | 0 mm | - | 191 W/m² | - |
| 1788377822 | 28.33° C | 85% | 1014.9 hPa | 0 mm | - | 190 W/m² | - |
| 1788377517 | 29.44° C | 84% | 1014.8 hPa | 0 mm | - | 195 W/m² | - |
| 1788377215 | 30° C | 80% | 1014.8 hPa | 0 mm | - | 192 W/m² | - |
* Rain latest hour (hover to see other rain measurements)
** Current wind speed in m/s (hover to see current wind gust speed)